sensor_id;sensor_type;location;lat;lon;timestamp;P1;durP1;ratioP1;P2;durP2;ratioP2
12218;SDS011;6172;42.646;23.344;2024-03-02T00:04:51;22.77;;;13.10;;
12218;SDS011;6172;42.646;23.344;2024-03-02T00:07:25;23.63;;;12.90;;
12218;SDS011;6172;42.646;23.344;2024-03-02T00:09:52;20.97;;;11.10;;
12218;SDS011;6172;42.646;23.344;2024-03-02T00:12:21;25.47;;;13.77;;
12218;SDS011;6172;42.646;23.344;2024-03-02T00:14:49;22.23;;;12.30;;
12218;SDS011;6172;42.646;23.344;2024-03-02T00:17:17;23.00;;;12.13;;
12218;SDS011;6172;42.646;23.344;2024-03-02T00:19:51;24.10;;;13.53;;
12218;SDS011;6172;42.646;23.344;2024-03-02T00:22:20;28.87;;;15.13;;
12218;SDS011;6172;42.646;23.344;2024-03-02T00:24:47;26.13;;;13.87;;
12218;SDS011;6172;42.646;23.344;2024-03-02T00:27:17;24.53;;;12.73;;
12218;SDS011;6172;42.646;23.344;2024-03-02T00:29:50;23.87;;;13.23;;
12218;SDS011;6172;42.646;23.344;2024-03-02T00:32:21;25.50;;;14.83;;
12218;SDS011;6172;42.646;23.344;2024-03-02T00:35:01;26.23;;;13.40;;
12218;SDS011;6172;42.646;23.344;2024-03-02T00:37:40;29.33;;;14.10;;
12218;SDS011;6172;42.646;23.344;2024-03-02T00:40:08;24.03;;;13.07;;
12218;SDS011;6172;42.646;23.344;2024-03-02T00:42:38;27.47;;;13.63;;
12218;SDS011;6172;42.646;23.344;2024-03-02T00:45:08;24.27;;;12.40;;
12218;SDS011;6172;42.646;23.344;2024-03-02T00:47:37;24.00;;;13.67;;
12218;SDS011;6172;42.646;23.344;2024-03-02T00:50:05;27.47;;;14.80;;
12218;SDS011;6172;42.646;23.344;2024-03-02T00:52:34;25.67;;;14.83;;
12218;SDS011;6172;42.646;23.344;2024-03-02T00:55:01;26.90;;;14.63;;
12218;SDS011;6172;42.646;23.344;2024-03-02T00:57:30;23.57;;;11.97;;
12218;SDS011;6172;42.646;23.344;2024-03-02T01:00:00;22.67;;;13.07;;
12218;SDS011;6172;42.646;23.344;2024-03-02T01:02:33;27.33;;;14.27;;
12218;SDS011;6172;42.646;23.344;2024-03-02T01:05:01;24.77;;;13.47;;
12218;SDS011;6172;42.646;23.344;2024-03-02T01:07:30;27.43;;;12.60;;
12218;SDS011;6172;42.646;23.344;2024-03-02T01:09:58;22.00;;;13.20;;
12218;SDS011;6172;42.646;23.344;2024-03-02T01:12:25;23.80;;;13.23;;
12218;SDS011;6172;42.646;23.344;2024-03-02T01:14:53;20.70;;;12.83;;
12218;SDS011;6172;42.646;23.344;2024-03-02T01:17:21;22.37;;;12.60;;
12218;SDS011;6172;42.646;23.344;2024-03-02T01:20:09;20.57;;;12.00;;
12218;SDS011;6172;42.646;23.344;2024-03-02T01:23:02;22.60;;;12.50;;
12218;SDS011;6172;42.646;23.344;2024-03-02T01:25:47;25.47;;;13.33;;
12218;SDS011;6172;42.646;23.344;2024-03-02T01:28:14;21.80;;;11.60;;
12218;SDS011;6172;42.646;23.344;2024-03-02T01:30:41;25.17;;;12.33;;
12218;SDS011;6172;42.646;23.344;2024-03-02T01:33:09;20.17;;;12.13;;
12218;SDS011;6172;42.646;23.344;2024-03-02T01:35:38;27.73;;;12.90;;
12218;SDS011;6172;42.646;23.344;2024-03-02T01:38:05;22.00;;;11.73;;
12218;SDS011;6172;42.646;23.344;2024-03-02T01:40:33;24.47;;;12.83;;
12218;SDS011;6172;42.646;23.344;2024-03-02T01:43:03;22.73;;;11.33;;
12218;SDS011;6172;42.646;23.344;2024-03-02T01:45:31;19.07;;;11.87;;
12218;SDS011;6172;42.646;23.344;2024-03-02T01:47:58;24.23;;;12.63;;
12218;SDS011;6172;42.646;23.344;2024-03-02T01:50:26;20.33;;;11.60;;
12218;SDS011;6172;42.646;23.344;2024-03-02T01:52:55;20.50;;;11.90;;
12218;SDS011;6172;42.646;23.344;2024-03-02T01:55:23;22.17;;;12.70;;
12218;SDS011;6172;42.646;23.344;2024-03-02T01:57:50;25.97;;;13.97;;
12218;SDS011;6172;42.646;23.344;2024-03-02T02:00:19;28.53;;;14.27;;
12218;SDS011;6172;42.646;23.344;2024-03-02T02:02:49;22.23;;;12.87;;
12218;SDS011;6172;42.646;23.344;2024-03-02T02:05:17;23.37;;;12.83;;
12218;SDS011;6172;42.646;23.344;2024-03-02T02:07:44;23.90;;;12.70;;
12218;SDS011;6172;42.646;23.344;2024-03-02T02:10:13;23.10;;;13.00;;
12218;SDS011;6172;42.646;23.344;2024-03-02T02:12:40;24.23;;;13.63;;
12218;SDS011;6172;42.646;23.344;2024-03-02T02:15:26;25.40;;;14.37;;
12218;SDS011;6172;42.646;23.344;2024-03-02T02:17:56;24.07;;;13.77;;
12218;SDS011;6172;42.646;23.344;2024-03-02T02:20:23;23.77;;;12.80;;
12218;SDS011;6172;42.646;23.344;2024-03-02T02:22:57;24.60;;;13.47;;
12218;SDS011;6172;42.646;23.344;2024-03-02T02:25:25;26.67;;;14.00;;
12218;SDS011;6172;42.646;23.344;2024-03-02T02:27:52;25.67;;;13.63;;
12218;SDS011;6172;42.646;23.344;2024-03-02T02:30:20;23.90;;;14.27;;
12218;SDS011;6172;42.646;23.344;2024-03-02T02:32:48;23.43;;;13.27;;
12218;SDS011;6172;42.646;23.344;2024-03-02T02:35:15;25.53;;;14.77;;
12218;SDS011;6172;42.646;23.344;2024-03-02T02:37:43;24.37;;;15.00;;
12218;SDS011;6172;42.646;23.344;2024-03-02T02:40:13;30.13;;;15.27;;
12218;SDS011;6172;42.646;23.344;2024-03-02T02:42:40;27.37;;;14.97;;
12218;SDS011;6172;42.646;23.344;2024-03-02T02:45:07;27.60;;;15.37;;
12218;SDS011;6172;42.646;23.344;2024-03-02T02:47:36;27.67;;;14.73;;
12218;SDS011;6172;42.646;23.344;2024-03-02T02:50:03;26.07;;;15.33;;
12218;SDS011;6172;42.646;23.344;2024-03-02T02:52:31;29.73;;;15.53;;
12218;SDS011;6172;42.646;23.344;2024-03-02T02:55:05;27.53;;;16.23;;
12218;SDS011;6172;42.646;23.344;2024-03-02T02:57:35;29.13;;;16.33;;
12218;SDS011;6172;42.646;23.344;2024-03-02T03:00:05;29.10;;;16.00;;
12218;SDS011;6172;42.646;23.344;2024-03-02T03:02:40;30.07;;;16.90;;
12218;SDS011;6172;42.646;23.344;2024-03-02T03:05:09;28.97;;;16.70;;
12218;SDS011;6172;42.646;23.344;2024-03-02T03:07:39;28.97;;;16.57;;
12218;SDS011;6172;42.646;23.344;2024-03-02T03:10:06;30.53;;;16.63;;
12218;SDS011;6172;42.646;23.344;2024-03-02T03:12:35;29.33;;;17.50;;
12218;SDS011;6172;42.646;23.344;2024-03-02T03:15:06;31.43;;;16.73;;
12218;SDS011;6172;42.646;23.344;2024-03-02T03:17:35;30.30;;;17.97;;
12218;SDS011;6172;42.646;23.344;2024-03-02T03:20:03;35.40;;;17.10;;
12218;SDS011;6172;42.646;23.344;2024-03-02T03:22:31;36.50;;;18.23;;
12218;SDS011;6172;42.646;23.344;2024-03-02T03:24:58;27.80;;;17.03;;
12218;SDS011;6172;42.646;23.344;2024-03-02T03:27:25;36.50;;;17.57;;
12218;SDS011;6172;42.646;23.344;2024-03-02T03:29:54;29.53;;;16.93;;
12218;SDS011;6172;42.646;23.344;2024-03-02T03:32:21;31.83;;;18.13;;
12218;SDS011;6172;42.646;23.344;2024-03-02T03:34:48;28.70;;;17.40;;
12218;SDS011;6172;42.646;23.344;2024-03-02T03:37:15;34.80;;;17.80;;
12218;SDS011;6172;42.646;23.344;2024-03-02T03:39:42;27.17;;;16.70;;
12218;SDS011;6172;42.646;23.344;2024-03-02T03:42:09;30.13;;;16.83;;
12218;SDS011;6172;42.646;23.344;2024-03-02T03:44:37;29.43;;;16.03;;
12218;SDS011;6172;42.646;23.344;2024-03-02T03:47:06;35.23;;;16.43;;
12218;SDS011;6172;42.646;23.344;2024-03-02T03:49:33;24.77;;;15.17;;
12218;SDS011;6172;42.646;23.344;2024-03-02T03:52:00;28.37;;;15.50;;
12218;SDS011;6172;42.646;23.344;2024-03-02T03:54:29;30.93;;;17.07;;
12218;SDS011;6172;42.646;23.344;2024-03-02T03:56:56;23.77;;;14.43;;
12218;SDS011;6172;42.646;23.344;2024-03-02T03:59:24;27.53;;;14.13;;
12218;SDS011;6172;42.646;23.344;2024-03-02T04:01:51;27.27;;;14.80;;
12218;SDS011;6172;42.646;23.344;2024-03-02T04:04:20;28.07;;;15.27;;
12218;SDS011;6172;42.646;23.344;2024-03-02T04:06:47;21.50;;;13.60;;
12218;SDS011;6172;42.646;23.344;2024-03-02T04:09:14;26.83;;;14.33;;
12218;SDS011;6172;42.646;23.344;2024-03-02T04:11:41;24.80;;;14.87;;
12218;SDS011;6172;42.646;23.344;2024-03-02T04:14:09;24.30;;;13.53;;
12218;SDS011;6172;42.646;23.344;2024-03-02T04:16:37;25.83;;;14.17;;
12218;SDS011;6172;42.646;23.344;2024-03-02T04:19:04;24.30;;;14.47;;
12218;SDS011;6172;42.646;23.344;2024-03-02T04:21:33;28.73;;;16.37;;
12218;SDS011;6172;42.646;23.344;2024-03-02T04:24:00;30.17;;;16.90;;
12218;SDS011;6172;42.646;23.344;2024-03-02T04:26:27;29.00;;;17.10;;
12218;SDS011;6172;42.646;23.344;2024-03-02T04:28:54;30.33;;;17.70;;
12218;SDS011;6172;42.646;23.344;2024-03-02T04:31:22;30.67;;;18.37;;
12218;SDS011;6172;42.646;23.344;2024-03-02T04:33:49;34.67;;;19.10;;
12218;SDS011;6172;42.646;23.344;2024-03-02T04:36:16;28.53;;;16.97;;
12218;SDS011;6172;42.646;23.344;2024-03-02T04:38:45;33.03;;;17.50;;
12218;SDS011;6172;42.646;23.344;2024-03-02T04:41:12;32.93;;;17.83;;
12218;SDS011;6172;42.646;23.344;2024-03-02T04:43:39;30.17;;;16.07;;
12218;SDS011;6172;42.646;23.344;2024-03-02T04:46:06;29.53;;;16.97;;
12218;SDS011;6172;42.646;23.344;2024-03-02T04:48:36;28.57;;;16.50;;
12218;SDS011;6172;42.646;23.344;2024-03-02T04:51:03;26.90;;;16.00;;
12218;SDS011;6172;42.646;23.344;2024-03-02T04:53:34;28.33;;;16.00;;
12218;SDS011;6172;42.646;23.344;2024-03-02T04:56:03;30.47;;;16.33;;
12218;SDS011;6172;42.646;23.344;2024-03-02T04:58:44;28.20;;;15.37;;
12218;SDS011;6172;42.646;23.344;2024-03-02T05:01:11;26.27;;;15.57;;
12218;SDS011;6172;42.646;23.344;2024-03-02T05:03:38;29.00;;;16.57;;
12218;SDS011;6172;42.646;23.344;2024-03-02T05:06:05;29.57;;;16.80;;
12218;SDS011;6172;42.646;23.344;2024-03-02T05:08:33;27.50;;;15.67;;
12218;SDS011;6172;42.646;23.344;2024-03-02T05:11:00;30.50;;;16.73;;
12218;SDS011;6172;42.646;23.344;2024-03-02T05:13:43;32.33;;;17.73;;
12218;SDS011;6172;42.646;23.344;2024-03-02T05:16:11;31.20;;;16.67;;
12218;SDS011;6172;42.646;23.344;2024-03-02T05:18:38;32.30;;;17.00;;
12218;SDS011;6172;42.646;23.344;2024-03-02T05:21:06;30.80;;;18.07;;
12218;SDS011;6172;42.646;23.344;2024-03-02T05:23:34;30.77;;;17.33;;
12218;SDS011;6172;42.646;23.344;2024-03-02T05:26:03;32.20;;;17.40;;
12218;SDS011;6172;42.646;23.344;2024-03-02T05:28:31;31.67;;;17.23;;
12218;SDS011;6172;42.646;23.344;2024-03-02T05:30:58;35.73;;;17.47;;
12218;SDS011;6172;42.646;23.344;2024-03-02T05:33:25;30.33;;;17.03;;
12218;SDS011;6172;42.646;23.344;2024-03-02T05:35:52;33.27;;;17.57;;
12218;SDS011;6172;42.646;23.344;2024-03-02T05:38:19;31.50;;;17.73;;
12218;SDS011;6172;42.646;23.344;2024-03-02T05:40:47;34.33;;;18.17;;
12218;SDS011;6172;42.646;23.344;2024-03-02T05:43:16;35.83;;;17.90;;
12218;SDS011;6172;42.646;23.344;2024-03-02T05:45:43;35.00;;;19.20;;
12218;SDS011;6172;42.646;23.344;2024-03-02T05:48:10;36.93;;;18.80;;
12218;SDS011;6172;42.646;23.344;2024-03-02T05:50:38;32.73;;;18.40;;
12218;SDS011;6172;42.646;23.344;2024-03-02T05:53:05;32.80;;;18.60;;
12218;SDS011;6172;42.646;23.344;2024-03-02T05:55:32;34.80;;;18.53;;
12218;SDS011;6172;42.646;23.344;2024-03-02T05:58:00;36.17;;;18.27;;
12218;SDS011;6172;42.646;23.344;2024-03-02T06:00:44;32.63;;;18.03;;
12218;SDS011;6172;42.646;23.344;2024-03-02T06:03:12;31.67;;;16.57;;
12218;SDS011;6172;42.646;23.344;2024-03-02T06:05:39;31.10;;;17.00;;
12218;SDS011;6172;42.646;23.344;2024-03-02T06:08:06;26.90;;;16.67;;
12218;SDS011;6172;42.646;23.344;2024-03-02T06:10:34;26.77;;;16.97;;
12218;SDS011;6172;42.646;23.344;2024-03-02T06:13:02;28.80;;;16.70;;
12218;SDS011;6172;42.646;23.344;2024-03-02T06:15:29;28.87;;;16.00;;
12218;SDS011;6172;42.646;23.344;2024-03-02T06:17:58;29.43;;;17.03;;
12218;SDS011;6172;42.646;23.344;2024-03-02T06:20:25;30.63;;;16.33;;
12218;SDS011;6172;42.646;23.344;2024-03-02T06:22:56;32.60;;;18.87;;
12218;SDS011;6172;42.646;23.344;2024-03-02T06:25:23;32.33;;;18.50;;
12218;SDS011;6172;42.646;23.344;2024-03-02T06:27:50;31.77;;;16.73;;
12218;SDS011;6172;42.646;23.344;2024-03-02T06:30:17;30.33;;;17.37;;
12218;SDS011;6172;42.646;23.344;2024-03-02T06:32:44;30.07;;;15.03;;
12218;SDS011;6172;42.646;23.344;2024-03-02T06:35:13;26.20;;;15.27;;
12218;SDS011;6172;42.646;23.344;2024-03-02T06:37:40;29.03;;;15.93;;
12218;SDS011;6172;42.646;23.344;2024-03-02T06:40:10;33.83;;;17.37;;
12218;SDS011;6172;42.646;23.344;2024-03-02T06:42:37;33.93;;;18.77;;
12218;SDS011;6172;42.646;23.344;2024-03-02T06:45:05;33.73;;;19.00;;
12218;SDS011;6172;42.646;23.344;2024-03-02T06:47:32;35.87;;;19.00;;
12218;SDS011;6172;42.646;23.344;2024-03-02T06:50:00;35.40;;;19.90;;
12218;SDS011;6172;42.646;23.344;2024-03-02T06:52:28;33.23;;;19.50;;
12218;SDS011;6172;42.646;23.344;2024-03-02T06:54:56;33.97;;;18.77;;
12218;SDS011;6172;42.646;23.344;2024-03-02T06:57:24;32.70;;;18.33;;
12218;SDS011;6172;42.646;23.344;2024-03-02T06:59:51;32.67;;;17.57;;
12218;SDS011;6172;42.646;23.344;2024-03-02T07:02:20;31.83;;;17.13;;
12218;SDS011;6172;42.646;23.344;2024-03-02T07:04:48;34.20;;;17.03;;
12218;SDS011;6172;42.646;23.344;2024-03-02T07:07:16;32.23;;;17.23;;
12218;SDS011;6172;42.646;23.344;2024-03-02T07:09:45;31.30;;;16.97;;
12218;SDS011;6172;42.646;23.344;2024-03-02T07:12:12;34.33;;;17.83;;
12218;SDS011;6172;42.646;23.344;2024-03-02T07:14:40;34.57;;;17.33;;
12218;SDS011;6172;42.646;23.344;2024-03-02T07:17:24;31.17;;;16.23;;
12218;SDS011;6172;42.646;23.344;2024-03-02T07:19:52;33.57;;;16.30;;
12218;SDS011;6172;42.646;23.344;2024-03-02T07:22:20;31.07;;;17.53;;
12218;SDS011;6172;42.646;23.344;2024-03-02T07:24:49;29.20;;;16.23;;
12218;SDS011;6172;42.646;23.344;2024-03-02T07:27:17;29.33;;;17.13;;
12218;SDS011;6172;42.646;23.344;2024-03-02T07:29:45;31.80;;;16.23;;
12218;SDS011;6172;42.646;23.344;2024-03-02T07:32:12;32.40;;;17.17;;
12218;SDS011;6172;42.646;23.344;2024-03-02T07:34:41;31.57;;;16.10;;
12218;SDS011;6172;42.646;23.344;2024-03-02T07:37:08;30.13;;;16.03;;
12218;SDS011;6172;42.646;23.344;2024-03-02T07:39:35;29.60;;;15.83;;
12218;SDS011;6172;42.646;23.344;2024-03-02T07:42:05;30.63;;;16.47;;
12218;SDS011;6172;42.646;23.344;2024-03-02T07:44:33;36.20;;;17.27;;
12218;SDS011;6172;42.646;23.344;2024-03-02T07:47:00;29.87;;;16.40;;
12218;SDS011;6172;42.646;23.344;2024-03-02T07:49:28;34.83;;;17.50;;
12218;SDS011;6172;42.646;23.344;2024-03-02T07:51:55;39.03;;;17.87;;
12218;SDS011;6172;42.646;23.344;2024-03-02T07:54:22;31.93;;;16.90;;
12218;SDS011;6172;42.646;23.344;2024-03-02T07:56:49;36.07;;;17.33;;
12218;SDS011;6172;42.646;23.344;2024-03-02T07:59:18;32.67;;;17.23;;
12218;SDS011;6172;42.646;23.344;2024-03-02T08:01:48;33.33;;;17.40;;
12218;SDS011;6172;42.646;23.344;2024-03-02T08:04:17;33.73;;;16.83;;
12218;SDS011;6172;42.646;23.344;2024-03-02T08:06:45;37.20;;;17.67;;
12218;SDS011;6172;42.646;23.344;2024-03-02T08:09:13;35.00;;;18.30;;
12218;SDS011;6172;42.646;23.344;2024-03-02T08:11:40;32.93;;;17.73;;
12218;SDS011;6172;42.646;23.344;2024-03-02T08:14:08;29.80;;;16.07;;
12218;SDS011;6172;42.646;23.344;2024-03-02T08:16:48;34.73;;;17.27;;
12218;SDS011;6172;42.646;23.344;2024-03-02T08:19:15;32.13;;;16.43;;
12218;SDS011;6172;42.646;23.344;2024-03-02T08:21:43;34.43;;;17.17;;
12218;SDS011;6172;42.646;23.344;2024-03-02T08:24:12;34.97;;;16.80;;
12218;SDS011;6172;42.646;23.344;2024-03-02T08:26:39;38.23;;;18.33;;
12218;SDS011;6172;42.646;23.344;2024-03-02T08:29:06;32.00;;;16.50;;
12218;SDS011;6172;42.646;23.344;2024-03-02T08:31:33;30.60;;;17.63;;
12218;SDS011;6172;42.646;23.344;2024-03-02T08:34:02;36.10;;;17.63;;
12218;SDS011;6172;42.646;23.344;2024-03-02T08:36:29;35.93;;;17.90;;
12218;SDS011;6172;42.646;23.344;2024-03-02T08:38:56;36.03;;;18.20;;
12218;SDS011;6172;42.646;23.344;2024-03-02T08:41:23;35.77;;;18.73;;
12218;SDS011;6172;42.646;23.344;2024-03-02T08:43:50;37.63;;;19.93;;
12218;SDS011;6172;42.646;23.344;2024-03-02T08:46:17;34.90;;;19.07;;
12218;SDS011;6172;42.646;23.344;2024-03-02T08:48:45;37.43;;;19.27;;
12218;SDS011;6172;42.646;23.344;2024-03-02T08:51:25;32.37;;;17.60;;
12218;SDS011;6172;42.646;23.344;2024-03-02T08:53:55;27.50;;;17.07;;
12218;SDS011;6172;42.646;23.344;2024-03-02T08:56:23;27.83;;;15.57;;
12218;SDS011;6172;42.646;23.344;2024-03-02T08:58:51;27.60;;;15.93;;
12218;SDS011;6172;42.646;23.344;2024-03-02T09:01:19;27.43;;;16.17;;
12218;SDS011;6172;42.646;23.344;2024-03-02T09:03:49;27.20;;;15.43;;
12218;SDS011;6172;42.646;23.344;2024-03-02T09:06:16;27.70;;;16.00;;
12218;SDS011;6172;42.646;23.344;2024-03-02T09:11:51;28.13;;;15.70;;
12218;SDS011;6172;42.646;23.344;2024-03-02T09:14:20;25.13;;;13.47;;
12218;SDS011;6172;42.646;23.344;2024-03-02T09:16:50;21.43;;;13.03;;
12218;SDS011;6172;42.646;23.344;2024-03-02T09:19:18;21.17;;;12.60;;
12218;SDS011;6172;42.646;23.344;2024-03-02T09:21:49;23.00;;;12.47;;
12218;SDS011;6172;42.646;23.344;2024-03-02T09:24:26;20.67;;;12.73;;
12218;SDS011;6172;42.646;23.344;2024-03-02T09:27:01;19.57;;;11.83;;
12218;SDS011;6172;42.646;23.344;2024-03-02T09:29:48;17.83;;;11.13;;
12218;SDS011;6172;42.646;23.344;2024-03-02T09:32:15;21.47;;;12.20;;
12218;SDS011;6172;42.646;23.344;2024-03-02T09:34:42;23.10;;;13.53;;
12218;SDS011;6172;42.646;23.344;2024-03-02T09:37:11;17.63;;;11.27;;
12218;SDS011;6172;42.646;23.344;2024-03-02T09:39:49;16.83;;;10.57;;
12218;SDS011;6172;42.646;23.344;2024-03-02T09:42:32;21.17;;;10.90;;
12218;SDS011;6172;42.646;23.344;2024-03-02T09:45:02;19.23;;;10.80;;
12218;SDS011;6172;42.646;23.344;2024-03-02T09:47:35;21.27;;;11.93;;
12218;SDS011;6172;42.646;23.344;2024-03-02T09:50:03;18.47;;;12.07;;
12218;SDS011;6172;42.646;23.344;2024-03-02T09:52:34;19.30;;;11.90;;
12218;SDS011;6172;42.646;23.344;2024-03-02T10:03:11;21.17;;;12.57;;
12218;SDS011;6172;42.646;23.344;2024-03-02T10:08:24;24.57;;;14.57;;
12218;SDS011;6172;42.646;23.344;2024-03-02T10:10:54;25.23;;;13.87;;
12218;SDS011;6172;42.646;23.344;2024-03-02T10:13:23;32.93;;;15.47;;
12218;SDS011;6172;42.646;23.344;2024-03-02T10:15:57;24.67;;;13.63;;
12218;SDS011;6172;42.646;23.344;2024-03-02T10:18:43;22.57;;;13.37;;
12218;SDS011;6172;42.646;23.344;2024-03-02T10:21:13;26.03;;;14.47;;
12218;SDS011;6172;42.646;23.344;2024-03-02T10:23:40;30.03;;;15.80;;
12218;SDS011;6172;42.646;23.344;2024-03-02T10:26:08;31.90;;;17.23;;
12218;SDS011;6172;42.646;23.344;2024-03-02T10:28:45;39.00;;;18.13;;
12218;SDS011;6172;42.646;23.344;2024-03-02T10:31:28;30.47;;;17.00;;
12218;SDS011;6172;42.646;23.344;2024-03-02T10:33:55;36.40;;;17.83;;
12218;SDS011;6172;42.646;23.344;2024-03-02T10:36:25;34.47;;;16.67;;
12218;SDS011;6172;42.646;23.344;2024-03-02T10:38:53;31.10;;;16.90;;
12218;SDS011;6172;42.646;23.344;2024-03-02T10:41:24;32.37;;;17.33;;
12218;SDS011;6172;42.646;23.344;2024-03-02T10:43:56;32.87;;;16.50;;
12218;SDS011;6172;42.646;23.344;2024-03-02T10:46:28;36.10;;;18.43;;
12218;SDS011;6172;42.646;23.344;2024-03-02T10:48:56;31.07;;;16.83;;
12218;SDS011;6172;42.646;23.344;2024-03-02T10:51:25;31.30;;;16.80;;
12218;SDS011;6172;42.646;23.344;2024-03-02T10:53:56;31.13;;;17.03;;
12218;SDS011;6172;42.646;23.344;2024-03-02T10:56:27;29.63;;;16.07;;
12218;SDS011;6172;42.646;23.344;2024-03-02T10:59:02;29.30;;;16.57;;
12218;SDS011;6172;42.646;23.344;2024-03-02T11:01:38;31.00;;;16.07;;
12218;SDS011;6172;42.646;23.344;2024-03-02T11:04:36;27.93;;;15.50;;
12218;SDS011;6172;42.646;23.344;2024-03-02T11:07:09;30.80;;;16.87;;
12218;SDS011;6172;42.646;23.344;2024-03-02T11:12:43;27.63;;;14.97;;
12218;SDS011;6172;42.646;23.344;2024-03-02T11:15:21;24.33;;;13.80;;
12218;SDS011;6172;42.646;23.344;2024-03-02T11:21:07;23.53;;;13.73;;
12218;SDS011;6172;42.646;23.344;2024-03-02T11:27:06;27.80;;;14.27;;
12218;SDS011;6172;42.646;23.344;2024-03-02T11:29:47;21.47;;;12.07;;
12218;SDS011;6172;42.646;23.344;2024-03-02T11:32:20;24.03;;;13.60;;
12218;SDS011;6172;42.646;23.344;2024-03-02T11:34:53;23.13;;;12.57;;
12218;SDS011;6172;42.646;23.344;2024-03-02T11:37:38;21.33;;;13.07;;
12218;SDS011;6172;42.646;23.344;2024-03-02T11:40:22;21.20;;;12.57;;
12218;SDS011;6172;42.646;23.344;2024-03-02T11:42:52;21.73;;;11.93;;
12218;SDS011;6172;42.646;23.344;2024-03-02T11:45:25;21.27;;;11.87;;
12218;SDS011;6172;42.646;23.344;2024-03-02T11:47:58;23.40;;;13.03;;
12218;SDS011;6172;42.646;23.344;2024-03-02T11:50:33;25.80;;;13.73;;
12218;SDS011;6172;42.646;23.344;2024-03-02T11:53:16;25.07;;;14.03;;
12218;SDS011;6172;42.646;23.344;2024-03-02T11:55:46;21.60;;;13.07;;
12218;SDS011;6172;42.646;23.344;2024-03-02T11:58:15;24.60;;;13.50;;
12218;SDS011;6172;42.646;23.344;2024-03-02T12:01:02;25.20;;;13.90;;
12218;SDS011;6172;42.646;23.344;2024-03-02T12:03:44;19.60;;;12.43;;
12218;SDS011;6172;42.646;23.344;2024-03-02T12:06:24;21.37;;;12.97;;
12218;SDS011;6172;42.646;23.344;2024-03-02T12:08:52;20.57;;;11.40;;
12218;SDS011;6172;42.646;23.344;2024-03-02T12:11:27;21.20;;;12.10;;
12218;SDS011;6172;42.646;23.344;2024-03-02T12:14:01;20.97;;;12.63;;
12218;SDS011;6172;42.646;23.344;2024-03-02T12:16:34;23.70;;;12.43;;
12218;SDS011;6172;42.646;23.344;2024-03-02T12:19:06;19.53;;;12.00;;
12218;SDS011;6172;42.646;23.344;2024-03-02T12:21:47;20.80;;;12.20;;
12218;SDS011;6172;42.646;23.344;2024-03-02T12:24:55;22.93;;;12.73;;
12218;SDS011;6172;42.646;23.344;2024-03-02T12:27:27;20.50;;;11.90;;
12218;SDS011;6172;42.646;23.344;2024-03-02T12:30:00;22.93;;;13.33;;
12218;SDS011;6172;42.646;23.344;2024-03-02T12:32:45;22.10;;;13.57;;
12218;SDS011;6172;42.646;23.344;2024-03-02T12:54:12;21.97;;;12.33;;
12218;SDS011;6172;42.646;23.344;2024-03-02T12:56:44;20.37;;;11.53;;
12218;SDS011;6172;42.646;23.344;2024-03-02T12:59:17;21.97;;;12.30;;
12218;SDS011;6172;42.646;23.344;2024-03-02T13:01:55;21.20;;;12.67;;
12218;SDS011;6172;42.646;23.344;2024-03-02T13:04:36;18.83;;;11.30;;
12218;SDS011;6172;42.646;23.344;2024-03-02T13:07:07;21.33;;;12.93;;
12218;SDS011;6172;42.646;23.344;2024-03-02T13:09:37;22.63;;;13.33;;
12218;SDS011;6172;42.646;23.344;2024-03-02T13:12:04;20.13;;;13.10;;
12218;SDS011;6172;42.646;23.344;2024-03-02T13:14:32;22.07;;;14.10;;
12218;SDS011;6172;42.646;23.344;2024-03-02T13:17:17;21.10;;;13.37;;
12218;SDS011;6172;42.646;23.344;2024-03-02T13:19:52;21.70;;;13.57;;
12218;SDS011;6172;42.646;23.344;2024-03-02T13:22:20;22.40;;;12.70;;
12218;SDS011;6172;42.646;23.344;2024-03-02T13:24:50;22.57;;;13.13;;
12218;SDS011;6172;42.646;23.344;2024-03-02T13:30:01;21.47;;;13.43;;
12218;SDS011;6172;42.646;23.344;2024-03-02T13:32:46;18.63;;;11.83;;
12218;SDS011;6172;42.646;23.344;2024-03-02T13:38:11;20.37;;;12.57;;
12218;SDS011;6172;42.646;23.344;2024-03-02T13:59:51;17.80;;;11.60;;
12218;SDS011;6172;42.646;23.344;2024-03-02T14:02:33;20.17;;;12.67;;
12218;SDS011;6172;42.646;23.344;2024-03-02T14:05:00;17.93;;;11.17;;
12218;SDS011;6172;42.646;23.344;2024-03-02T14:07:36;18.13;;;11.93;;
12218;SDS011;6172;42.646;23.344;2024-03-02T14:10:06;18.80;;;11.20;;
12218;SDS011;6172;42.646;23.344;2024-03-02T14:12:56;23.43;;;13.40;;
12218;SDS011;6172;42.646;23.344;2024-03-02T14:18:39;22.53;;;13.50;;
12218;SDS011;6172;42.646;23.344;2024-03-02T14:24:31;21.67;;;13.47;;
12218;SDS011;6172;42.646;23.344;2024-03-02T14:27:20;22.10;;;13.10;;
12218;SDS011;6172;42.646;23.344;2024-03-02T14:30:08;22.87;;;14.33;;
12218;SDS011;6172;42.646;23.344;2024-03-02T14:48:49;24.10;;;14.47;;
12218;SDS011;6172;42.646;23.344;2024-03-02T14:51:18;22.90;;;14.60;;
12218;SDS011;6172;42.646;23.344;2024-03-02T14:53:46;21.20;;;14.17;;
12218;SDS011;6172;42.646;23.344;2024-03-02T14:56:13;21.37;;;14.23;;
12218;SDS011;6172;42.646;23.344;2024-03-02T14:58:45;25.97;;;15.23;;
12218;SDS011;6172;42.646;23.344;2024-03-02T15:01:19;23.63;;;14.70;;
12218;SDS011;6172;42.646;23.344;2024-03-02T15:03:51;23.60;;;15.00;;
12218;SDS011;6172;42.646;23.344;2024-03-02T15:09:04;25.07;;;15.67;;
12218;SDS011;6172;42.646;23.344;2024-03-02T15:11:36;22.50;;;15.30;;
12218;SDS011;6172;42.646;23.344;2024-03-02T15:14:13;24.87;;;15.60;;
12218;SDS011;6172;42.646;23.344;2024-03-02T15:16:41;26.17;;;15.13;;
12218;SDS011;6172;42.646;23.344;2024-03-02T15:19:14;23.10;;;15.30;;
12218;SDS011;6172;42.646;23.344;2024-03-02T15:21:42;27.10;;;16.50;;
12218;SDS011;6172;42.646;23.344;2024-03-02T15:24:09;24.73;;;15.73;;
12218;SDS011;6172;42.646;23.344;2024-03-02T15:26:36;26.93;;;16.53;;
12218;SDS011;6172;42.646;23.344;2024-03-02T15:29:04;26.87;;;17.00;;
12218;SDS011;6172;42.646;23.344;2024-03-02T15:31:31;26.87;;;17.17;;
12218;SDS011;6172;42.646;23.344;2024-03-02T15:34:00;31.73;;;18.63;;
12218;SDS011;6172;42.646;23.344;2024-03-02T15:36:32;28.20;;;18.60;;
12218;SDS011;6172;42.646;23.344;2024-03-02T15:39:00;28.57;;;18.67;;
12218;SDS011;6172;42.646;23.344;2024-03-02T15:41:33;31.10;;;19.37;;
12218;SDS011;6172;42.646;23.344;2024-03-02T15:44:00;29.77;;;19.17;;
12218;SDS011;6172;42.646;23.344;2024-03-02T15:46:27;29.73;;;19.43;;
12218;SDS011;6172;42.646;23.344;2024-03-02T15:48:56;32.03;;;19.17;;
12218;SDS011;6172;42.646;23.344;2024-03-02T15:51:23;30.60;;;19.17;;
12218;SDS011;6172;42.646;23.344;2024-03-02T15:53:51;30.63;;;18.60;;
12218;SDS011;6172;42.646;23.344;2024-03-02T15:56:19;32.50;;;19.20;;
12218;SDS011;6172;42.646;23.344;2024-03-02T15:58:46;33.20;;;19.03;;
12218;SDS011;6172;42.646;23.344;2024-03-02T16:01:14;28.93;;;18.17;;
12218;SDS011;6172;42.646;23.344;2024-03-02T16:03:41;30.70;;;18.70;;
12218;SDS011;6172;42.646;23.344;2024-03-02T16:06:11;29.63;;;18.77;;
12218;SDS011;6172;42.646;23.344;2024-03-02T16:08:38;28.10;;;18.53;;
12218;SDS011;6172;42.646;23.344;2024-03-02T16:11:07;32.27;;;18.40;;
12218;SDS011;6172;42.646;23.344;2024-03-02T16:13:34;31.77;;;19.40;;
12218;SDS011;6172;42.646;23.344;2024-03-02T16:16:01;29.33;;;18.83;;